Time,TemperatureF,DewpointF,PressureIn,WindDirection,WindDirectionDegrees,WindSpeedMPH,WindSpeedGustMPH,Humidity,HourlyPrecipIn,Conditions,Clouds,dailyrainin,SoftwareType,DateUTC
2013-09-22 00:04:00,28.0,14.0,-100.00,NNW,335,5.0,11.0,54,0.00,,,0.00,,2013-09-22 08:04:00,
2013-09-22 00:11:00,28.0,14.0,-100.00,NNW,335,5.0,11.0,54,0.00,,,0.00,,2013-09-22 08:11:00,
2013-09-22 00:22:00,27.0,14.0,-100.00,NNW,335,6.0,12.0,55,0.00,,,0.00,,2013-09-22 08:22:00,
2013-09-22 00:32:00,27.0,14.0,-100.00,NNW,335,6.0,12.0,55,0.00,,,0.00,,2013-09-22 08:32:00,
2013-09-22 00:42:00,27.0,14.0,-100.00,NNW,335,6.0,12.0,55,0.00,,,0.00,,2013-09-22 08:42:00,
2013-09-22 00:52:00,27.0,14.0,-100.00,North,355,6.0,11.0,56,0.00,,,0.00,,2013-09-22 08:52:00,
2013-09-22 01:02:00,27.0,14.0,-100.00,North,355,6.0,11.0,56,0.00,,,0.00,,2013-09-22 09:02:00,
2013-09-22 01:11:00,27.0,14.0,-100.00,North,355,6.0,11.0,56,0.00,,,0.00,,2013-09-22 09:11:00,
2013-09-22 01:21:00,27.0,14.0,-100.00,North,5,5.0,10.0,57,0.00,,,0.00,,2013-09-22 09:21:00,
2013-09-22 01:33:00,27.0,14.0,-100.00,North,5,5.0,10.0,57,0.00,,,0.00,,2013-09-22 09:33:00,
2013-09-22 01:43:00,27.0,14.0,-100.00,North,5,5.0,10.0,57,0.00,,,0.00,,2013-09-22 09:43:00,
2013-09-22 01:53:00,27.0,14.0,-100.00,North,0,4.0,10.0,58,0.00,,,0.00,,2013-09-22 09:53:00,
2013-09-22 02:03:00,27.0,14.0,-100.00,North,0,4.0,10.0,58,0.00,,,0.00,,2013-09-22 10:03:00,
2013-09-22 02:12:00,27.0,14.0,-100.00,North,0,4.0,10.0,58,0.00,,,0.00,,2013-09-22 10:12:00,
2013-09-22 02:23:00,27.0,15.0,-100.00,North,0,4.0,7.0,59,0.00,,,0.00,,2013-09-22 10:23:00,
2013-09-22 02:33:00,27.0,15.0,-100.00,North,0,4.0,7.0,59,0.00,,,0.00,,2013-09-22 10:33:00,
2013-09-22 02:44:00,27.0,15.0,-100.00,North,0,4.0,7.0,59,0.00,,,0.00,,2013-09-22 10:44:00,
2013-09-22 02:53:00,27.0,15.0,-100.00,North,0,4.0,6.0,59,0.00,,,0.00,,2013-09-22 10:53:00,
2013-09-22 03:12:00,27.0,15.0,-100.00,North,0,4.0,6.0,59,0.00,,,0.00,,2013-09-22 11:12:00,
2013-09-22 03:22:00,26.0,15.0,-100.00,North,0,2.0,6.0,62,0.00,,,0.00,,2013-09-22 11:22:00,
2013-09-22 03:33:00,26.0,15.0,-100.00,North,0,2.0,6.0,62,0.00,,,0.00,,2013-09-22 11:33:00,
2013-09-22 03:42:00,26.0,15.0,-100.00,North,0,2.0,6.0,62,0.00,,,0.00,,2013-09-22 11:42:00,
2013-09-22 03:52:00,25.0,15.0,-100.00,North,0,3.0,8.0,64,0.00,,,0.00,,2013-09-22 11:52:00,
2013-09-22 04:02:00,25.0,15.0,-100.00,North,0,3.0,8.0,64,0.00,,,0.00,,2013-09-22 12:02:00,
2013-09-22 04:12:00,25.0,15.0,-100.00,North,0,3.0,8.0,64,0.00,,,0.00,,2013-09-22 12:12:00,
2013-09-22 04:22:00,25.0,16.0,-100.00,NNW,345,4.0,9.0,67,0.00,,,0.00,,2013-09-22 12:22:00,
2013-09-22 04:32:00,25.0,16.0,-100.00,NNW,345,4.0,9.0,67,0.00,,,0.00,,2013-09-22 12:32:00,
2013-09-22 04:42:00,25.0,16.0,-100.00,NNW,345,4.0,9.0,67,0.00,,,0.00,,2013-09-22 12:42:00,
2013-09-22 04:52:00,25.0,15.0,-100.00,NW,325,5.0,11.0,67,0.00,,,0.00,,2013-09-22 12:52:00,
2013-09-22 05:02:00,25.0,15.0,-100.00,NW,325,5.0,11.0,67,0.00,,,0.00,,2013-09-22 13:02:00,
2013-09-22 05:12:00,25.0,15.0,-100.00,NW,325,5.0,11.0,67,0.00,,,0.00,,2013-09-22 13:12:00,
2013-09-22 05:21:00,24.0,16.0,-100.00,North,350,6.0,11.0,69,0.00,,,0.00,,2013-09-22 13:21:00,
2013-09-22 05:32:00,24.0,16.0,-100.00,North,350,6.0,11.0,69,0.00,,,0.00,,2013-09-22 13:32:00,
2013-09-22 05:42:00,24.0,16.0,-100.00,North,350,6.0,11.0,69,0.00,,,0.00,,2013-09-22 13:42:00,
2013-09-22 05:52:00,24.0,16.0,-100.00,North,0,4.0,12.0,70,0.00,,,0.00,,2013-09-22 13:52:00,
2013-09-22 06:02:00,24.0,16.0,-100.00,North,0,4.0,12.0,70,0.00,,,0.00,,2013-09-22 14:02:00,
2013-09-22 06:11:00,24.0,16.0,-100.00,North,0,4.0,12.0,70,0.00,,,0.00,,2013-09-22 14:11:00,
2013-09-22 06:22:00,24.0,16.0,-100.00,North,355,6.0,11.0,71,0.00,,,0.00,,2013-09-22 14:22:00,
2013-09-22 06:32:00,24.0,16.0,-100.00,North,355,6.0,11.0,71,0.00,,,0.00,,2013-09-22 14:32:00,
2013-09-22 06:42:00,24.0,16.0,-100.00,North,355,6.0,11.0,71,0.00,,,0.00,,2013-09-22 14:42:00,
2013-09-22 06:52:00,24.0,17.0,-100.00,NW,320,3.0,9.0,72,0.00,,,0.00,,2013-09-22 14:52:00,
2013-09-22 07:02:00,24.0,17.0,-100.00,NW,320,3.0,9.0,72,0.00,,,0.00,,2013-09-22 15:02:00,
2013-09-22 07:12:00,24.0,17.0,-100.00,NW,320,3.0,9.0,72,0.00,,,0.00,,2013-09-22 15:12:00,
2013-09-22 07:23:00,24.0,17.0,-100.00,NNW,345,5.0,10.0,75,0.00,,,0.00,,2013-09-22 15:23:00,
2013-09-22 07:34:00,24.0,17.0,-100.00,NNW,345,5.0,10.0,75,0.00,,,0.00,,2013-09-22 15:34:00,
2013-09-22 07:44:00,24.0,17.0,-100.00,NNW,345,5.0,10.0,75,0.00,,,0.00,,2013-09-22 15:44:00,
2013-09-22 07:54:00,24.0,18.0,-100.00,NNW,335,5.0,11.0,79,0.00,,,0.00,,2013-09-22 15:54:00,
2013-09-22 08:04:00,24.0,18.0,-100.00,NNW,335,5.0,11.0,79,0.00,,,0.00,,2013-09-22 16:04:00,
2013-09-22 08:13:00,24.0,18.0,-100.00,NNW,335,5.0,11.0,79,0.00,,,0.00,,2013-09-22 16:13:00,
2013-09-22 08:24:00,24.0,19.0,-100.00,NW,305,4.0,12.0,81,0.00,,,0.00,,2013-09-22 16:24:00,
2013-09-22 08:33:00,24.0,19.0,-100.00,NW,305,4.0,12.0,81,0.00,,,0.00,,2013-09-22 16:33:00,
2013-09-22 08:43:00,24.0,19.0,-100.00,NW,305,4.0,12.0,81,0.00,,,0.00,,2013-09-22 16:43:00,
2013-09-22 08:54:00,24.0,20.0,-100.00,NW,320,6.0,13.0,86,0.00,,,0.00,,2013-09-22 16:54:00,
2013-09-22 09:03:00,24.0,20.0,-100.00,NW,320,6.0,13.0,86,0.00,,,0.00,,2013-09-22 17:03:00,
2013-09-22 09:12:00,24.0,20.0,-100.00,NW,320,6.0,13.0,86,0.00,,,0.00,,2013-09-22 17:12:00,
2013-09-22 09:23:00,24.0,21.0,-100.00,NNW,330,6.0,12.0,88,0.00,,,0.00,,2013-09-22 17:23:00,
2013-09-22 09:34:00,24.0,21.0,-100.00,NNW,330,6.0,12.0,88,0.00,,,0.00,,2013-09-22 17:34:00,
2013-09-22 09:43:00,24.0,21.0,-100.00,NNW,330,6.0,12.0,88,0.00,,,0.00,,2013-09-22 17:43:00,
2013-09-22 09:53:00,24.0,21.0,-100.00,NW,315,5.0,10.0,90,0.00,,,0.00,,2013-09-22 17:53:00,
2013-09-22 10:02:00,24.0,21.0,-100.00,NW,315,5.0,10.0,90,0.00,,,0.00,,2013-09-22 18:02:00,
2013-09-22 10:13:00,24.0,21.0,-100.00,NW,315,5.0,10.0,90,0.00,,,0.00,,2013-09-22 18:13:00,
2013-09-22 10:22:00,24.0,22.0,-100.00,North,0,4.0,10.0,90,0.00,,,0.00,,2013-09-22 18:22:00,
2013-09-22 10:32:00,24.0,22.0,-100.00,North,0,4.0,10.0,90,0.00,,,0.00,,2013-09-22 18:32:00,
2013-09-22 10:42:00,24.0,22.0,-100.00,North,0,4.0,10.0,90,0.00,,,0.00,,2013-09-22 18:42:00,
2013-09-22 10:52:00,24.0,22.0,-100.00,NNW,340,4.0,11.0,90,0.00,,,0.00,,2013-09-22 18:52:00,
2013-09-22 11:02:00,24.0,22.0,-100.00,NNW,340,4.0,11.0,90,0.00,,,0.00,,2013-09-22 19:02:00,
2013-09-22 11:11:00,24.0,22.0,-100.00,NNW,340,4.0,11.0,90,0.00,,,0.00,,2013-09-22 19:11:00,
2013-09-22 11:22:00,25.0,23.0,-100.00,NW,325,5.0,11.0,90,0.00,,,0.00,,2013-09-22 19:22:00,
2013-09-22 11:32:00,25.0,23.0,-100.00,NW,325,5.0,11.0,90,0.00,,,0.00,,2013-09-22 19:32:00,
2013-09-22 11:42:00,25.0,23.0,-100.00,NW,325,5.0,11.0,90,0.00,,,0.00,,2013-09-22 19:42:00,
2013-09-22 11:52:00,26.0,23.0,-100.00,WNW,295,4.0,9.0,90,0.00,,,0.00,,2013-09-22 19:52:00,
2013-09-22 12:03:00,26.0,23.0,-100.00,WNW,295,4.0,9.0,90,0.00,,,0.00,,2013-09-22 20:03:00,
2013-09-22 12:12:00,26.0,23.0,-100.00,WNW,295,4.0,9.0,90,0.00,,,0.00,,2013-09-22 20:12:00,
2013-09-22 12:22:00,26.0,24.0,-100.00,WNW,285,2.0,9.0,90,0.00,,,0.00,,2013-09-22 20:22:00,
2013-09-22 12:33:00,26.0,24.0,-100.00,WNW,285,2.0,9.0,90,0.00,,,0.00,,2013-09-22 20:33:00,
2013-09-22 12:42:00,26.0,24.0,-100.00,WNW,285,2.0,9.0,90,0.00,,,0.00,,2013-09-22 20:42:00,
2013-09-22 12:52:00,26.0,24.0,-100.00,NNW,330,6.0,12.0,90,0.00,,,0.00,,2013-09-22 20:52:00,
2013-09-22 13:02:00,26.0,24.0,-100.00,NNW,330,6.0,12.0,90,0.00,,,0.00,,2013-09-22 21:02:00,
2013-09-22 13:12:00,26.0,24.0,-100.00,NNW,330,6.0,12.0,90,0.00,,,0.00,,2013-09-22 21:12:00,
2013-09-22 13:23:00,25.0,23.0,-100.00,West,270,6.0,13.0,90,0.00,,,0.00,,2013-09-22 21:23:00,
2013-09-22 13:34:00,25.0,23.0,-100.00,West,270,6.0,13.0,90,0.00,,,0.00,,2013-09-22 21:34:00,
2013-09-22 13:44:00,25.0,23.0,-100.00,West,270,6.0,13.0,90,0.00,,,0.00,,2013-09-22 21:44:00,
2013-09-22 13:54:00,25.0,23.0,-100.00,WNW,295,7.0,12.0,90,0.00,,,0.00,,2013-09-22 21:54:00,
2013-09-22 14:04:00,25.0,23.0,-100.00,WNW,295,7.0,12.0,90,0.00,,,0.00,,2013-09-22 22:04:00,
2013-09-22 14:14:00,25.0,23.0,-100.00,WNW,295,7.0,12.0,90,0.00,,,0.00,,2013-09-22 22:14:00,
2013-09-22 14:24:00,25.0,23.0,-100.00,NW,315,6.0,11.0,90,0.00,,,0.00,,2013-09-22 22:24:00,
2013-09-22 14:34:00,25.0,23.0,-100.00,NW,315,6.0,11.0,90,0.00,,,0.00,,2013-09-22 22:34:00,
2013-09-22 14:43:00,25.0,23.0,-100.00,NW,315,6.0,11.0,90,0.00,,,0.00,,2013-09-22 22:43:00,
2013-09-22 14:53:00,26.0,23.0,-100.00,WNW,300,5.0,9.0,90,0.00,,,0.00,,2013-09-22 22:53:00,
2013-09-22 15:03:00,26.0,23.0,-100.00,WNW,300,5.0,9.0,90,0.00,,,0.00,,2013-09-22 23:03:00,
2013-09-22 15:12:00,26.0,23.0,-100.00,WNW,300,5.0,9.0,90,0.00,,,0.00,,2013-09-22 23:12:00,
2013-09-22 15:22:00,25.0,23.0,-100.00,NW,315,9.0,14.0,90,0.00,,,0.00,,2013-09-22 23:22:00,
2013-09-22 15:34:00,25.0,23.0,-100.00,NW,315,9.0,14.0,90,0.00,,,0.00,,2013-09-22 23:34:00,
2013-09-22 15:43:00,25.0,23.0,-100.00,NW,315,9.0,14.0,90,0.00,,,0.00,,2013-09-22 23:43:00,
2013-09-22 15:52:00,26.0,23.0,-100.00,WNW,290,6.0,11.0,90,0.00,,,0.00,,2013-09-22 23:52:00,
2013-09-22 16:01:00,26.0,23.0,-100.00,WNW,290,6.0,11.0,90,0.00,,,0.00,,2013-09-23 00:01:00,
2013-09-22 16:12:00,26.0,23.0,-100.00,WNW,290,6.0,11.0,90,0.00,,,0.00,,2013-09-23 00:12:00,
2013-09-22 16:23:00,26.0,23.0,-100.00,WNW,290,5.0,13.0,90,0.00,,,0.00,,2013-09-23 00:23:00,
2013-09-22 16:32:00,26.0,23.0,-100.00,WNW,290,5.0,13.0,90,0.00,,,0.00,,2013-09-23 00:32:00,
2013-09-22 16:42:00,26.0,23.0,-100.00,WNW,290,5.0,13.0,90,0.00,,,0.00,,2013-09-23 00:42:00,
2013-09-22 16:53:00,26.0,24.0,-100.00,WNW,290,6.0,11.0,90,0.00,,,0.00,,2013-09-23 00:53:00,
2013-09-22 17:01:00,26.0,24.0,-100.00,WNW,290,6.0,11.0,90,0.00,,,0.00,,2013-09-23 01:01:00,
2013-09-22 17:12:00,26.0,24.0,-100.00,WNW,290,6.0,11.0,90,0.00,,,0.00,,2013-09-23 01:12:00,
2013-09-22 17:22:00,26.0,24.0,-100.00,WNW,300,6.0,12.0,90,0.00,,,0.00,,2013-09-23 01:22:00,
2013-09-22 17:32:00,26.0,24.0,-100.00,WNW,300,6.0,12.0,90,0.00,,,0.00,,2013-09-23 01:32:00,
2013-09-22 17:43:00,26.0,24.0,-100.00,WNW,300,6.0,12.0,90,0.00,,,0.00,,2013-09-23 01:43:00,
2013-09-22 17:52:00,26.0,24.0,-100.00,WNW,295,6.0,10.0,90,0.00,,,0.00,,2013-09-23 01:52:00,
2013-09-22 18:02:00,26.0,24.0,-100.00,WNW,295,6.0,10.0,90,0.00,,,0.00,,2013-09-23 02:02:00,
2013-09-22 18:11:00,26.0,24.0,-100.00,WNW,295,6.0,10.0,90,0.00,,,0.00,,2013-09-23 02:11:00,
2013-09-22 18:22:00,26.0,24.0,-100.00,WNW,285,4.0,11.0,90,0.00,,,0.00,,2013-09-23 02:22:00,
2013-09-22 18:32:00,26.0,24.0,-100.00,WNW,285,4.0,11.0,90,0.00,,,0.00,,2013-09-23 02:32:00,
2013-09-22 18:42:00,26.0,24.0,-100.00,WNW,285,4.0,11.0,90,0.00,,,0.00,,2013-09-23 02:42:00,
2013-09-22 18:52:00,26.0,24.0,-100.00,West,275,5.0,10.0,91,0.00,,,0.00,,2013-09-23 02:52:00,
2013-09-22 19:03:00,26.0,24.0,-100.00,West,275,5.0,10.0,91,0.00,,,0.00,,2013-09-23 03:03:00,
2013-09-22 19:12:00,26.0,24.0,-100.00,West,275,5.0,10.0,91,0.00,,,0.00,,2013-09-23 03:12:00,
2013-09-22 19:22:00,26.0,24.0,-100.00,WNW,285,5.0,9.0,91,0.00,,,0.00,,2013-09-23 03:22:00,
2013-09-22 19:34:00,26.0,24.0,-100.00,WNW,285,5.0,9.0,91,0.00,,,0.00,,2013-09-23 03:34:00,
2013-09-22 19:44:00,26.0,24.0,-100.00,WNW,285,5.0,9.0,91,0.00,,,0.00,,2013-09-23 03:44:00,
2013-09-22 19:54:00,26.0,24.0,-100.00,WNW,300,5.0,10.0,91,0.00,,,0.00,,2013-09-23 03:54:00,
2013-09-22 20:05:00,26.0,24.0,-100.00,WNW,300,5.0,10.0,91,0.00,,,0.00,,2013-09-23 04:05:00,
2013-09-22 20:14:00,26.0,24.0,-100.00,WNW,300,5.0,10.0,91,0.00,,,0.00,,2013-09-23 04:14:00,
2013-09-22 20:24:00,26.0,24.0,-100.00,West,270,3.0,11.0,91,0.00,,,0.00,,2013-09-23 04:24:00,
2013-09-22 20:33:00,26.0,24.0,-100.00,West,270,3.0,11.0,91,0.00,,,0.00,,2013-09-23 04:33:00,
2013-09-22 20:43:00,26.0,24.0,-100.00,West,270,3.0,11.0,91,0.00,,,0.00,,2013-09-23 04:43:00,
2013-09-22 20:53:00,26.0,24.0,-100.00,NNW,335,4.0,10.0,91,0.00,,,0.00,,2013-09-23 04:53:00,
2013-09-22 21:03:00,26.0,24.0,-100.00,NNW,335,4.0,10.0,91,0.00,,,0.00,,2013-09-23 05:03:00,
2013-09-22 21:12:00,26.0,24.0,-100.00,NNW,335,4.0,10.0,91,0.00,,,0.00,,2013-09-23 05:12:00,
2013-09-22 21:22:00,26.0,24.0,-100.00,WNW,300,2.0,10.0,91,0.00,,,0.00,,2013-09-23 05:22:00,
2013-09-22 21:34:00,26.0,24.0,-100.00,WNW,300,2.0,10.0,91,0.00,,,0.00,,2013-09-23 05:34:00,
2013-09-22 21:43:00,26.0,24.0,-100.00,WNW,300,2.0,10.0,91,0.00,,,0.00,,2013-09-23 05:43:00,
2013-09-22 21:53:00,26.0,24.0,-100.00,NW,325,4.0,10.0,91,0.00,,,0.00,,2013-09-23 05:53:00,
2013-09-22 22:02:00,26.0,24.0,-100.00,NW,325,4.0,10.0,91,0.00,,,0.00,,2013-09-23 06:02:00,
2013-09-22 22:13:00,26.0,24.0,-100.00,NW,325,4.0,10.0,91,0.00,,,0.00,,2013-09-23 06:13:00,
2013-09-22 22:22:00,26.0,24.0,-100.00,WNW,290,4.0,8.0,91,0.00,,,0.00,,2013-09-23 06:22:00,
2013-09-22 22:32:00,26.0,24.0,-100.00,WNW,290,4.0,8.0,91,0.00,,,0.00,,2013-09-23 06:32:00,
2013-09-22 22:42:00,26.0,24.0,-100.00,WNW,290,4.0,8.0,91,0.00,,,0.00,,2013-09-23 06:42:00,
2013-09-22 22:52:00,26.0,24.0,-100.00,WNW,285,4.0,8.0,91,0.00,,,0.00,,2013-09-23 06:52:00,
2013-09-22 23:01:00,26.0,24.0,-100.00,WNW,285,4.0,8.0,91,0.00,,,0.00,,2013-09-23 07:01:00,
2013-09-22 23:11:00,26.0,24.0,-100.00,WNW,285,4.0,8.0,91,0.00,,,0.00,,2013-09-23 07:11:00,
2013-09-22 23:21:00,25.0,23.0,-100.00,NW,320,4.0,8.0,91,0.00,,,0.00,,2013-09-23 07:21:00,
2013-09-22 23:32:00,25.0,23.0,-100.00,NW,320,4.0,8.0,91,0.00,,,0.00,,2013-09-23 07:32:00,
2013-09-22 23:42:00,25.0,23.0,-100.00,NW,320,4.0,8.0,91,0.00,,,0.00,,2013-09-23 07:42:00,
2013-09-22 23:52:00,25.0,23.0,-100.00,NNW,335,3.0,7.0,91,0.00,,,0.00,,2013-09-23 07:52:00,